sensor_id;sensor_type;location;lat;lon;timestamp;temperature;humidity
4461;DHT22;2243;48.812;9.232;2023-06-22T00:00:10;23.30;99.90
4461;DHT22;2243;48.812;9.232;2023-06-22T00:02:43;23.30;99.90
4461;DHT22;2243;48.812;9.232;2023-06-22T00:05:14;23.30;99.90
4461;DHT22;2243;48.812;9.232;2023-06-22T00:07:44;23.20;99.90
4461;DHT22;2243;48.812;9.232;2023-06-22T00:10:15;23.20;99.90
4461;DHT22;2243;48.812;9.232;2023-06-22T00:12:46;23.20;99.90
4461;DHT22;2243;48.812;9.232;2023-06-22T00:15:17;23.20;99.90
4461;DHT22;2243;48.812;9.232;2023-06-22T00:17:49;23.10;99.90
4461;DHT22;2243;48.812;9.232;2023-06-22T00:20:21;23.10;99.90
4461;DHT22;2243;48.812;9.232;2023-06-22T00:22:59;23.10;99.90
4461;DHT22;2243;48.812;9.232;2023-06-22T00:25:31;23.00;99.90
4461;DHT22;2243;48.812;9.232;2023-06-22T00:28:02;22.90;99.90
4461;DHT22;2243;48.812;9.232;2023-06-22T00:30:35;23.00;99.90
4461;DHT22;2243;48.812;9.232;2023-06-22T00:33:06;23.10;99.90
4461;DHT22;2243;48.812;9.232;2023-06-22T00:35:38;23.00;99.90
4461;DHT22;2243;48.812;9.232;2023-06-22T00:38:12;23.00;99.90
4461;DHT22;2243;48.812;9.232;2023-06-22T00:40:43;22.90;99.90
4461;DHT22;2243;48.812;9.232;2023-06-22T00:43:14;23.00;99.90
4461;DHT22;2243;48.812;9.232;2023-06-22T00:45:46;22.90;99.90
4461;DHT22;2243;48.812;9.232;2023-06-22T00:48:18;22.90;99.90
4461;DHT22;2243;48.812;9.232;2023-06-22T00:50:49;22.80;99.90
4461;DHT22;2243;48.812;9.232;2023-06-22T00:53:21;22.60;99.90
4461;DHT22;2243;48.812;9.232;2023-06-22T00:55:53;22.70;99.90
4461;DHT22;2243;48.812;9.232;2023-06-22T00:58:24;22.80;99.90
4461;DHT22;2243;48.812;9.232;2023-06-22T01:00:55;22.70;99.90
4461;DHT22;2243;48.812;9.232;2023-06-22T01:03:27;22.70;99.90
4461;DHT22;2243;48.812;9.232;2023-06-22T01:06:15;22.60;99.90
4461;DHT22;2243;48.812;9.232;2023-06-22T01:09:00;22.70;99.90
4461;DHT22;2243;48.812;9.232;2023-06-22T01:11:41;22.60;99.90
4461;DHT22;2243;48.812;9.232;2023-06-22T01:14:23;22.60;99.90
4461;DHT22;2243;48.812;9.232;2023-06-22T01:17:01;22.60;99.90
4461;DHT22;2243;48.812;9.232;2023-06-22T01:19:46;22.80;99.90
4461;DHT22;2243;48.812;9.232;2023-06-22T01:22:30;22.60;99.90
4461;DHT22;2243;48.812;9.232;2023-06-22T01:25:13;22.50;99.90
4461;DHT22;2243;48.812;9.232;2023-06-22T01:28:03;22.30;99.90
4461;DHT22;2243;48.812;9.232;2023-06-22T01:30:38;22.20;99.90
4461;DHT22;2243;48.812;9.232;2023-06-22T01:33:11;22.20;99.90
4461;DHT22;2243;48.812;9.232;2023-06-22T01:35:44;22.30;99.90
4461;DHT22;2243;48.812;9.232;2023-06-22T01:38:15;22.40;99.90
4461;DHT22;2243;48.812;9.232;2023-06-22T01:40:46;22.40;99.90
4461;DHT22;2243;48.812;9.232;2023-06-22T01:43:18;22.50;99.90
4461;DHT22;2243;48.812;9.232;2023-06-22T01:45:51;22.50;99.90
4461;DHT22;2243;48.812;9.232;2023-06-22T01:48:23;22.60;99.90
4461;DHT22;2243;48.812;9.232;2023-06-22T01:50:55;22.50;99.90
4461;DHT22;2243;48.812;9.232;2023-06-22T01:53:26;22.50;99.90
4461;DHT22;2243;48.812;9.232;2023-06-22T01:55:57;22.50;99.90
4461;DHT22;2243;48.812;9.232;2023-06-22T01:58:30;22.50;99.90
4461;DHT22;2243;48.812;9.232;2023-06-22T02:01:13;22.40;99.90
4461;DHT22;2243;48.812;9.232;2023-06-22T02:03:58;22.40;99.90
4461;DHT22;2243;48.812;9.232;2023-06-22T02:06:39;22.40;99.90
4461;DHT22;2243;48.812;9.232;2023-06-22T02:09:19;22.30;99.90
4461;DHT22;2243;48.812;9.232;2023-06-22T02:11:52;22.30;99.90
4461;DHT22;2243;48.812;9.232;2023-06-22T02:14:26;22.20;99.90
4461;DHT22;2243;48.812;9.232;2023-06-22T02:16:58;22.40;99.90
4461;DHT22;2243;48.812;9.232;2023-06-22T02:19:32;22.30;99.90
4461;DHT22;2243;48.812;9.232;2023-06-22T02:22:04;22.20;99.90
4461;DHT22;2243;48.812;9.232;2023-06-22T02:24:35;22.20;99.90
4461;DHT22;2243;48.812;9.232;2023-06-22T02:27:06;22.20;99.90
4461;DHT22;2243;48.812;9.232;2023-06-22T02:29:37;22.30;99.90
4461;DHT22;2243;48.812;9.232;2023-06-22T02:32:08;22.20;99.90
4461;DHT22;2243;48.812;9.232;2023-06-22T02:34:39;22.10;99.90
4461;DHT22;2243;48.812;9.232;2023-06-22T02:37:12;22.10;99.90
4461;DHT22;2243;48.812;9.232;2023-06-22T02:39:43;22.10;99.90
4461;DHT22;2243;48.812;9.232;2023-06-22T02:42:14;22.10;99.90
4461;DHT22;2243;48.812;9.232;2023-06-22T02:44:45;22.10;99.90
4461;DHT22;2243;48.812;9.232;2023-06-22T02:47:16;22.10;99.90
4461;DHT22;2243;48.812;9.232;2023-06-22T02:49:47;21.90;99.90
4461;DHT22;2243;48.812;9.232;2023-06-22T02:52:18;21.90;99.90
4461;DHT22;2243;48.812;9.232;2023-06-22T02:54:49;21.90;99.90
4461;DHT22;2243;48.812;9.232;2023-06-22T02:57:20;22.00;99.90
4461;DHT22;2243;48.812;9.232;2023-06-22T02:59:51;22.00;99.90
4461;DHT22;2243;48.812;9.232;2023-06-22T03:02:22;21.90;99.90
4461;DHT22;2243;48.812;9.232;2023-06-22T03:04:53;21.90;99.90
4461;DHT22;2243;48.812;9.232;2023-06-22T03:07:25;21.80;99.90
4461;DHT22;2243;48.812;9.232;2023-06-22T03:09:59;21.90;99.90
4461;DHT22;2243;48.812;9.232;2023-06-22T03:12:30;21.90;99.90
4461;DHT22;2243;48.812;9.232;2023-06-22T03:15:01;22.00;99.90
4461;DHT22;2243;48.812;9.232;2023-06-22T03:17:32;21.90;99.90
4461;DHT22;2243;48.812;9.232;2023-06-22T03:20:04;21.90;99.90
4461;DHT22;2243;48.812;9.232;2023-06-22T03:22:42;21.80;99.90
4461;DHT22;2243;48.812;9.232;2023-06-22T03:25:14;21.70;99.90
4461;DHT22;2243;48.812;9.232;2023-06-22T03:27:45;21.70;99.90
4461;DHT22;2243;48.812;9.232;2023-06-22T03:30:17;21.60;99.90
4461;DHT22;2243;48.812;9.232;2023-06-22T03:32:48;21.70;99.90
4461;DHT22;2243;48.812;9.232;2023-06-22T03:35:19;21.60;99.90
4461;DHT22;2243;48.812;9.232;2023-06-22T03:37:50;21.50;99.90
4461;DHT22;2243;48.812;9.232;2023-06-22T03:40:21;21.60;99.90
4461;DHT22;2243;48.812;9.232;2023-06-22T03:42:52;21.50;99.90
4461;DHT22;2243;48.812;9.232;2023-06-22T03:45:23;21.50;99.90
4461;DHT22;2243;48.812;9.232;2023-06-22T03:47:54;21.50;99.90
4461;DHT22;2243;48.812;9.232;2023-06-22T03:50:25;21.60;99.90
4461;DHT22;2243;48.812;9.232;2023-06-22T03:52:56;21.60;99.90
4461;DHT22;2243;48.812;9.232;2023-06-22T03:55:27;21.50;99.90
4461;DHT22;2243;48.812;9.232;2023-06-22T03:57:58;21.60;99.90
4461;DHT22;2243;48.812;9.232;2023-06-22T04:00:36;21.60;99.90
4461;DHT22;2243;48.812;9.232;2023-06-22T04:03:07;21.60;99.90
4461;DHT22;2243;48.812;9.232;2023-06-22T04:05:39;21.60;99.90
4461;DHT22;2243;48.812;9.232;2023-06-22T04:08:10;21.60;99.90
4461;DHT22;2243;48.812;9.232;2023-06-22T04:10:42;21.50;99.90
4461;DHT22;2243;48.812;9.232;2023-06-22T04:13:13;21.40;99.90
4461;DHT22;2243;48.812;9.232;2023-06-22T04:15:44;21.60;99.90
4461;DHT22;2243;48.812;9.232;2023-06-22T04:18:15;21.70;99.90
4461;DHT22;2243;48.812;9.232;2023-06-22T04:20:46;22.00;99.90
4461;DHT22;2243;48.812;9.232;2023-06-22T04:23:17;22.30;99.90
4461;DHT22;2243;48.812;9.232;2023-06-22T04:25:49;22.40;99.90
4461;DHT22;2243;48.812;9.232;2023-06-22T04:28:20;22.60;99.90
4461;DHT22;2243;48.812;9.232;2023-06-22T04:30:50;22.70;99.90
4461;DHT22;2243;48.812;9.232;2023-06-22T04:33:21;22.90;99.90
4461;DHT22;2243;48.812;9.232;2023-06-22T04:35:52;23.00;99.90
4461;DHT22;2243;48.812;9.232;2023-06-22T04:38:24;23.00;99.90
4461;DHT22;2243;48.812;9.232;2023-06-22T04:40:55;23.10;99.90
4461;DHT22;2243;48.812;9.232;2023-06-22T04:43:26;23.00;99.90
4461;DHT22;2243;48.812;9.232;2023-06-22T04:46:01;23.00;99.90
4461;DHT22;2243;48.812;9.232;2023-06-22T04:48:34;22.90;99.90
4461;DHT22;2243;48.812;9.232;2023-06-22T04:51:05;23.00;99.90
4461;DHT22;2243;48.812;9.232;2023-06-22T04:53:35;23.00;99.90
4461;DHT22;2243;48.812;9.232;2023-06-22T04:56:07;23.00;99.90
4461;DHT22;2243;48.812;9.232;2023-06-22T04:58:38;23.00;99.90
4461;DHT22;2243;48.812;9.232;2023-06-22T05:01:09;23.00;99.90
4461;DHT22;2243;48.812;9.232;2023-06-22T05:03:41;23.00;99.90
4461;DHT22;2243;48.812;9.232;2023-06-22T05:06:13;23.00;99.90
4461;DHT22;2243;48.812;9.232;2023-06-22T05:08:44;23.00;99.90
4461;DHT22;2243;48.812;9.232;2023-06-22T05:11:15;23.00;99.90
4461;DHT22;2243;48.812;9.232;2023-06-22T05:13:46;23.00;99.90
4461;DHT22;2243;48.812;9.232;2023-06-22T05:16:17;23.00;99.90
4461;DHT22;2243;48.812;9.232;2023-06-22T05:18:55;23.00;99.90
4461;DHT22;2243;48.812;9.232;2023-06-22T05:21:27;23.00;99.90
4461;DHT22;2243;48.812;9.232;2023-06-22T05:23:58;23.00;99.90
4461;DHT22;2243;48.812;9.232;2023-06-22T05:26:34;22.90;99.90
4461;DHT22;2243;48.812;9.232;2023-06-22T05:29:05;22.80;99.90
4461;DHT22;2243;48.812;9.232;2023-06-22T05:31:37;22.70;99.90
4461;DHT22;2243;48.812;9.232;2023-06-22T05:34:22;22.70;99.90
4461;DHT22;2243;48.812;9.232;2023-06-22T05:36:53;22.70;99.90
4461;DHT22;2243;48.812;9.232;2023-06-22T05:39:24;22.80;99.90
4461;DHT22;2243;48.812;9.232;2023-06-22T05:41:56;22.80;99.90
4461;DHT22;2243;48.812;9.232;2023-06-22T05:44:27;22.80;99.90
4461;DHT22;2243;48.812;9.232;2023-06-22T05:46:58;22.70;99.90
4461;DHT22;2243;48.812;9.232;2023-06-22T05:49:29;22.70;99.90
4461;DHT22;2243;48.812;9.232;2023-06-22T05:52:04;22.80;99.90
4461;DHT22;2243;48.812;9.232;2023-06-22T05:54:35;22.80;99.90
4461;DHT22;2243;48.812;9.232;2023-06-22T05:57:06;22.80;99.90
4461;DHT22;2243;48.812;9.232;2023-06-22T05:59:37;22.90;99.90
4461;DHT22;2243;48.812;9.232;2023-06-22T06:02:08;23.00;99.90
4461;DHT22;2243;48.812;9.232;2023-06-22T06:04:39;23.10;99.90
4461;DHT22;2243;48.812;9.232;2023-06-22T06:07:10;23.20;99.90
4461;DHT22;2243;48.812;9.232;2023-06-22T06:09:41;23.20;99.90
4461;DHT22;2243;48.812;9.232;2023-06-22T06:12:12;23.20;99.90
4461;DHT22;2243;48.812;9.232;2023-06-22T06:14:43;23.20;99.90
4461;DHT22;2243;48.812;9.232;2023-06-22T06:17:14;23.20;99.90
4461;DHT22;2243;48.812;9.232;2023-06-22T06:19:45;23.20;99.90
4461;DHT22;2243;48.812;9.232;2023-06-22T06:22:16;23.20;99.90
4461;DHT22;2243;48.812;9.232;2023-06-22T06:24:48;23.20;99.90
4461;DHT22;2243;48.812;9.232;2023-06-22T06:27:19;23.30;99.90
4461;DHT22;2243;48.812;9.232;2023-06-22T06:29:50;23.30;99.90
4461;DHT22;2243;48.812;9.232;2023-06-22T06:32:21;23.40;99.90
4461;DHT22;2243;48.812;9.232;2023-06-22T06:34:52;23.40;99.90
4461;DHT22;2243;48.812;9.232;2023-06-22T06:37:23;23.40;99.90
4461;DHT22;2243;48.812;9.232;2023-06-22T06:39:54;23.50;99.90
4461;DHT22;2243;48.812;9.232;2023-06-22T06:42:25;23.60;99.90
4461;DHT22;2243;48.812;9.232;2023-06-22T06:44:56;23.70;99.90
4461;DHT22;2243;48.812;9.232;2023-06-22T06:47:27;23.70;99.90
4461;DHT22;2243;48.812;9.232;2023-06-22T06:49:58;23.80;99.90
4461;DHT22;2243;48.812;9.232;2023-06-22T06:52:30;23.80;99.90
4461;DHT22;2243;48.812;9.232;2023-06-22T06:55:01;23.90;99.90
4461;DHT22;2243;48.812;9.232;2023-06-22T06:57:35;24.00;99.90
4461;DHT22;2243;48.812;9.232;2023-06-22T07:00:11;24.10;99.90
4461;DHT22;2243;48.812;9.232;2023-06-22T07:02:46;24.20;99.90
4461;DHT22;2243;48.812;9.232;2023-06-22T07:05:19;24.10;99.90
4461;DHT22;2243;48.812;9.232;2023-06-22T07:07:50;24.20;99.90
4461;DHT22;2243;48.812;9.232;2023-06-22T07:10:21;24.40;99.90
4461;DHT22;2243;48.812;9.232;2023-06-22T07:12:52;24.40;99.90
4461;DHT22;2243;48.812;9.232;2023-06-22T07:15:23;24.50;99.90
4461;DHT22;2243;48.812;9.232;2023-06-22T07:17:54;24.50;99.90
4461;DHT22;2243;48.812;9.232;2023-06-22T07:20:25;24.60;99.90
4461;DHT22;2243;48.812;9.232;2023-06-22T07:22:57;24.70;99.90
4461;DHT22;2243;48.812;9.232;2023-06-22T07:25:28;24.80;99.90
4461;DHT22;2243;48.812;9.232;2023-06-22T07:28:04;24.90;99.90
4461;DHT22;2243;48.812;9.232;2023-06-22T07:30:36;24.90;99.90
4461;DHT22;2243;48.812;9.232;2023-06-22T07:33:07;25.00;99.90
4461;DHT22;2243;48.812;9.232;2023-06-22T07:35:39;25.10;99.90
4461;DHT22;2243;48.812;9.232;2023-06-22T07:38:10;25.30;99.90
4461;DHT22;2243;48.812;9.232;2023-06-22T07:40:41;25.30;99.90
4461;DHT22;2243;48.812;9.232;2023-06-22T07:43:12;25.40;99.90
4461;DHT22;2243;48.812;9.232;2023-06-22T07:45:48;25.50;99.90
4461;DHT22;2243;48.812;9.232;2023-06-22T07:48:23;25.70;99.90
4461;DHT22;2243;48.812;9.232;2023-06-22T07:50:54;25.70;99.90
4461;DHT22;2243;48.812;9.232;2023-06-22T07:53:24;25.70;99.90
4461;DHT22;2243;48.812;9.232;2023-06-22T07:55:55;25.80;99.90
4461;DHT22;2243;48.812;9.232;2023-06-22T07:58:29;25.80;99.90
4461;DHT22;2243;48.812;9.232;2023-06-22T08:01:07;25.90;99.90
4461;DHT22;2243;48.812;9.232;2023-06-22T08:03:40;26.10;99.90
4461;DHT22;2243;48.812;9.232;2023-06-22T08:06:11;26.20;99.90
4461;DHT22;2243;48.812;9.232;2023-06-22T08:08:43;26.30;99.90
4461;DHT22;2243;48.812;9.232;2023-06-22T08:11:14;26.50;99.90
4461;DHT22;2243;48.812;9.232;2023-06-22T08:13:45;26.50;99.90
4461;DHT22;2243;48.812;9.232;2023-06-22T08:16:16;26.60;99.90
4461;DHT22;2243;48.812;9.232;2023-06-22T08:18:49;26.70;99.90
4461;DHT22;2243;48.812;9.232;2023-06-22T08:21:20;26.80;99.90
4461;DHT22;2243;48.812;9.232;2023-06-22T08:23:51;26.90;99.90
4461;DHT22;2243;48.812;9.232;2023-06-22T08:26:23;26.90;99.90
4461;DHT22;2243;48.812;9.232;2023-06-22T08:28:57;27.00;99.90
4461;DHT22;2243;48.812;9.232;2023-06-22T08:31:28;27.10;99.90
4461;DHT22;2243;48.812;9.232;2023-06-22T08:33:59;27.30;99.90
4461;DHT22;2243;48.812;9.232;2023-06-22T08:36:32;27.30;99.90
4461;DHT22;2243;48.812;9.232;2023-06-22T08:39:11;27.40;99.90
4461;DHT22;2243;48.812;9.232;2023-06-22T08:41:42;27.60;99.90
4461;DHT22;2243;48.812;9.232;2023-06-22T08:44:13;27.50;99.90
4461;DHT22;2243;48.812;9.232;2023-06-22T08:46:44;27.50;99.90
4461;DHT22;2243;48.812;9.232;2023-06-22T08:49:15;27.50;99.90
4461;DHT22;2243;48.812;9.232;2023-06-22T08:51:47;27.50;99.90
4461;DHT22;2243;48.812;9.232;2023-06-22T08:54:23;27.60;99.90
4461;DHT22;2243;48.812;9.232;2023-06-22T08:56:54;27.80;99.90
4461;DHT22;2243;48.812;9.232;2023-06-22T08:59:27;28.00;99.90
4461;DHT22;2243;48.812;9.232;2023-06-22T09:01:59;28.10;99.90
4461;DHT22;2243;48.812;9.232;2023-06-22T09:04:33;28.10;99.80
4461;DHT22;2243;48.812;9.232;2023-06-22T09:07:08;28.20;99.90
4461;DHT22;2243;48.812;9.232;2023-06-22T09:09:40;28.30;99.90
4461;DHT22;2243;48.812;9.232;2023-06-22T09:12:14;28.40;99.50
4461;DHT22;2243;48.812;9.232;2023-06-22T09:14:45;28.40;99.00
4461;DHT22;2243;48.812;9.232;2023-06-22T09:17:20;28.40;99.00
4461;DHT22;2243;48.812;9.232;2023-06-22T09:19:55;28.40;99.10
4461;DHT22;2243;48.812;9.232;2023-06-22T09:22:28;28.40;99.10
4461;DHT22;2243;48.812;9.232;2023-06-22T09:25:00;28.50;98.70
4461;DHT22;2243;48.812;9.232;2023-06-22T09:27:31;28.50;98.30
4461;DHT22;2243;48.812;9.232;2023-06-22T09:30:02;28.40;98.50
4461;DHT22;2243;48.812;9.232;2023-06-22T09:32:34;28.20;98.60
4461;DHT22;2243;48.812;9.232;2023-06-22T09:35:06;28.30;98.70
4461;DHT22;2243;48.812;9.232;2023-06-22T09:37:40;28.50;98.50
4461;DHT22;2243;48.812;9.232;2023-06-22T09:40:11;28.60;98.50
4461;DHT22;2243;48.812;9.232;2023-06-22T09:42:45;28.70;98.70
4461;DHT22;2243;48.812;9.232;2023-06-22T09:45:17;28.80;98.30
4461;DHT22;2243;48.812;9.232;2023-06-22T09:47:48;28.90;98.30
4461;DHT22;2243;48.812;9.232;2023-06-22T09:50:21;28.90;97.50
4461;DHT22;2243;48.812;9.232;2023-06-22T09:52:52;28.80;97.70
4461;DHT22;2243;48.812;9.232;2023-06-22T09:55:25;28.90;97.70
4461;DHT22;2243;48.812;9.232;2023-06-22T09:57:57;28.90;97.60
4461;DHT22;2243;48.812;9.232;2023-06-22T10:00:28;29.00;97.40
4461;DHT22;2243;48.812;9.232;2023-06-22T10:03:02;29.10;97.80
4461;DHT22;2243;48.812;9.232;2023-06-22T10:05:35;29.20;98.00
4461;DHT22;2243;48.812;9.232;2023-06-22T10:08:10;29.30;97.40
4461;DHT22;2243;48.812;9.232;2023-06-22T10:10:44;29.40;97.10
4461;DHT22;2243;48.812;9.232;2023-06-22T10:13:17;29.60;97.20
4461;DHT22;2243;48.812;9.232;2023-06-22T10:15:50;29.70;96.70
4461;DHT22;2243;48.812;9.232;2023-06-22T10:18:22;29.80;96.60
4461;DHT22;2243;48.812;9.232;2023-06-22T10:20:56;29.90;96.60
4461;DHT22;2243;48.812;9.232;2023-06-22T10:23:27;30.10;96.90
4461;DHT22;2243;48.812;9.232;2023-06-22T10:25:58;30.20;96.80
4461;DHT22;2243;48.812;9.232;2023-06-22T10:28:31;30.40;96.50
4461;DHT22;2243;48.812;9.232;2023-06-22T10:31:02;30.50;96.50
4461;DHT22;2243;48.812;9.232;2023-06-22T10:33:36;30.60;95.90
4461;DHT22;2243;48.812;9.232;2023-06-22T10:36:07;30.60;96.30
4461;DHT22;2243;48.812;9.232;2023-06-22T10:38:38;30.80;96.10
4461;DHT22;2243;48.812;9.232;2023-06-22T10:41:09;30.90;96.10
4461;DHT22;2243;48.812;9.232;2023-06-22T10:43:40;30.80;95.60
4461;DHT22;2243;48.812;9.232;2023-06-22T10:46:11;30.90;96.20
4461;DHT22;2243;48.812;9.232;2023-06-22T10:48:43;31.00;95.70
4461;DHT22;2243;48.812;9.232;2023-06-22T10:51:14;31.30;95.40
4461;DHT22;2243;48.812;9.232;2023-06-22T10:53:47;31.50;95.50
4461;DHT22;2243;48.812;9.232;2023-06-22T10:56:18;31.50;95.40
4461;DHT22;2243;48.812;9.232;2023-06-22T10:58:52;31.60;94.80
4461;DHT22;2243;48.812;9.232;2023-06-22T11:01:23;31.60;94.60
4461;DHT22;2243;48.812;9.232;2023-06-22T11:03:57;31.70;94.80
4461;DHT22;2243;48.812;9.232;2023-06-22T11:06:28;31.70;94.40
4461;DHT22;2243;48.812;9.232;2023-06-22T11:09:01;31.60;93.80
4461;DHT22;2243;48.812;9.232;2023-06-22T11:11:56;31.60;94.10
4461;DHT22;2243;48.812;9.232;2023-06-22T11:14:32;31.70;93.90
4461;DHT22;2243;48.812;9.232;2023-06-22T11:17:06;31.80;94.00
4461;DHT22;2243;48.812;9.232;2023-06-22T11:19:41;31.90;93.60
4461;DHT22;2243;48.812;9.232;2023-06-22T11:22:25;31.80;93.70
4461;DHT22;2243;48.812;9.232;2023-06-22T11:25:05;31.80;93.50
4461;DHT22;2243;48.812;9.232;2023-06-22T11:27:38;31.80;93.80
4461;DHT22;2243;48.812;9.232;2023-06-22T11:30:12;31.70;93.90
4461;DHT22;2243;48.812;9.232;2023-06-22T11:32:43;31.80;93.70
4461;DHT22;2243;48.812;9.232;2023-06-22T11:35:15;31.60;93.40
4461;DHT22;2243;48.812;9.232;2023-06-22T11:37:49;31.60;94.20
4461;DHT22;2243;48.812;9.232;2023-06-22T11:40:20;31.60;94.30
4461;DHT22;2243;48.812;9.232;2023-06-22T11:42:51;31.70;93.50
4461;DHT22;2243;48.812;9.232;2023-06-22T11:45:22;31.70;93.70
4461;DHT22;2243;48.812;9.232;2023-06-22T11:47:53;31.70;93.90
4461;DHT22;2243;48.812;9.232;2023-06-22T11:50:24;31.80;93.40
4461;DHT22;2243;48.812;9.232;2023-06-22T11:52:55;32.10;93.10
4461;DHT22;2243;48.812;9.232;2023-06-22T11:55:29;32.40;93.70
4461;DHT22;2243;48.812;9.232;2023-06-22T11:58:04;32.60;93.20
4461;DHT22;2243;48.812;9.232;2023-06-22T12:00:36;32.90;93.00
4461;DHT22;2243;48.812;9.232;2023-06-22T12:03:20;32.90;92.70
4461;DHT22;2243;48.812;9.232;2023-06-22T12:05:54;32.80;92.40
4461;DHT22;2243;48.812;9.232;2023-06-22T12:08:25;32.80;92.20
4461;DHT22;2243;48.812;9.232;2023-06-22T12:10:56;32.70;91.80
4461;DHT22;2243;48.812;9.232;2023-06-22T12:13:27;32.50;91.90
4461;DHT22;2243;48.812;9.232;2023-06-22T12:15:58;32.40;92.40
4461;DHT22;2243;48.812;9.232;2023-06-22T12:18:29;32.30;92.80
4461;DHT22;2243;48.812;9.232;2023-06-22T12:21:00;32.30;92.50
4461;DHT22;2243;48.812;9.232;2023-06-22T12:23:31;32.30;92.50
4461;DHT22;2243;48.812;9.232;2023-06-22T12:26:02;32.10;92.30
4461;DHT22;2243;48.812;9.232;2023-06-22T12:28:33;32.00;92.60
4461;DHT22;2243;48.812;9.232;2023-06-22T12:31:04;32.00;92.30
4461;DHT22;2243;48.812;9.232;2023-06-22T12:33:35;31.80;92.20
4461;DHT22;2243;48.812;9.232;2023-06-22T12:36:06;31.80;92.80
4461;DHT22;2243;48.812;9.232;2023-06-22T12:38:37;31.90;92.70
4461;DHT22;2243;48.812;9.232;2023-06-22T12:41:08;31.90;92.40
4461;DHT22;2243;48.812;9.232;2023-06-22T12:43:40;31.90;92.50
4461;DHT22;2243;48.812;9.232;2023-06-22T12:46:30;31.90;92.20
4461;DHT22;2243;48.812;9.232;2023-06-22T12:49:10;31.90;92.40
4461;DHT22;2243;48.812;9.232;2023-06-22T12:51:42;31.80;92.50
4461;DHT22;2243;48.812;9.232;2023-06-22T12:54:14;31.80;92.30
4461;DHT22;2243;48.812;9.232;2023-06-22T12:56:45;31.70;92.00
4461;DHT22;2243;48.812;9.232;2023-06-22T12:59:16;31.80;92.10
4461;DHT22;2243;48.812;9.232;2023-06-22T13:01:50;31.70;91.70
4461;DHT22;2243;48.812;9.232;2023-06-22T13:04:29;31.60;91.60
4461;DHT22;2243;48.812;9.232;2023-06-22T13:07:04;31.50;91.90
4461;DHT22;2243;48.812;9.232;2023-06-22T13:09:49;31.50;92.50
4461;DHT22;2243;48.812;9.232;2023-06-22T13:12:23;31.50;92.70
4461;DHT22;2243;48.812;9.232;2023-06-22T13:14:54;31.50;92.60
4461;DHT22;2243;48.812;9.232;2023-06-22T13:17:25;31.50;92.70
4461;DHT22;2243;48.812;9.232;2023-06-22T13:19:56;31.60;92.60
4461;DHT22;2243;48.812;9.232;2023-06-22T13:22:34;31.50;92.60
4461;DHT22;2243;48.812;9.232;2023-06-22T13:25:15;31.50;92.90
4461;DHT22;2243;48.812;9.232;2023-06-22T13:27:51;31.60;92.70
4461;DHT22;2243;48.812;9.232;2023-06-22T13:30:22;31.70;92.60
4461;DHT22;2243;48.812;9.232;2023-06-22T13:32:56;31.80;92.40
4461;DHT22;2243;48.812;9.232;2023-06-22T13:35:27;31.80;92.10
4461;DHT22;2243;48.812;9.232;2023-06-22T13:37:59;31.90;91.80
4461;DHT22;2243;48.812;9.232;2023-06-22T13:40:29;31.90;91.80
4461;DHT22;2243;48.812;9.232;2023-06-22T13:43:01;31.90;92.30
4461;DHT22;2243;48.812;9.232;2023-06-22T13:45:33;32.10;92.30
4461;DHT22;2243;48.812;9.232;2023-06-22T13:48:04;32.10;92.10
4461;DHT22;2243;48.812;9.232;2023-06-22T13:50:36;32.20;92.20
4461;DHT22;2243;48.812;9.232;2023-06-22T13:53:07;32.20;91.80
4461;DHT22;2243;48.812;9.232;2023-06-22T13:55:37;32.20;92.10
4461;DHT22;2243;48.812;9.232;2023-06-22T13:58:09;32.30;92.40
4461;DHT22;2243;48.812;9.232;2023-06-22T14:00:42;32.30;92.10
4461;DHT22;2243;48.812;9.232;2023-06-22T14:03:13;32.30;92.00
4461;DHT22;2243;48.812;9.232;2023-06-22T14:05:46;32.30;92.00
4461;DHT22;2243;48.812;9.232;2023-06-22T14:08:17;32.30;92.00
4461;DHT22;2243;48.812;9.232;2023-06-22T14:11:10;32.40;92.90
4461;DHT22;2243;48.812;9.232;2023-06-22T14:13:41;32.40;91.70
4461;DHT22;2243;48.812;9.232;2023-06-22T14:16:13;32.50;90.80
4461;DHT22;2243;48.812;9.232;2023-06-22T14:18:47;32.60;91.50
4461;DHT22;2243;48.812;9.232;2023-06-22T14:21:21;32.50;89.50
4461;DHT22;2243;48.812;9.232;2023-06-22T14:23:52;32.60;88.40
4461;DHT22;2243;48.812;9.232;2023-06-22T14:26:23;32.70;88.90
4461;DHT22;2243;48.812;9.232;2023-06-22T14:28:58;32.90;87.30
4461;DHT22;2243;48.812;9.232;2023-06-22T14:31:29;33.00;86.20
4461;DHT22;2243;48.812;9.232;2023-06-22T14:34:01;33.00;86.40
4461;DHT22;2243;48.812;9.232;2023-06-22T14:36:45;33.10;87.10
4461;DHT22;2243;48.812;9.232;2023-06-22T14:39:16;33.20;86.30
4461;DHT22;2243;48.812;9.232;2023-06-22T14:41:47;33.00;85.80
4461;DHT22;2243;48.812;9.232;2023-06-22T14:44:17;33.00;86.30
4461;DHT22;2243;48.812;9.232;2023-06-22T14:46:48;32.80;85.90
4461;DHT22;2243;48.812;9.232;2023-06-22T14:49:19;32.90;85.90
4461;DHT22;2243;48.812;9.232;2023-06-22T14:51:52;32.90;85.50
4461;DHT22;2243;48.812;9.232;2023-06-22T14:54:23;33.10;84.30
4461;DHT22;2243;48.812;9.232;2023-06-22T14:56:57;33.30;83.70
4461;DHT22;2243;48.812;9.232;2023-06-22T14:59:31;33.30;83.40
4461;DHT22;2243;48.812;9.232;2023-06-22T15:02:02;33.50;83.30
4461;DHT22;2243;48.812;9.232;2023-06-22T15:04:33;33.60;83.20
4461;DHT22;2243;48.812;9.232;2023-06-22T15:07:06;33.50;82.80
4461;DHT22;2243;48.812;9.232;2023-06-22T15:09:37;33.30;83.40
4461;DHT22;2243;48.812;9.232;2023-06-22T15:12:12;33.20;79.20
4461;DHT22;2243;48.812;9.232;2023-06-22T15:14:43;33.10;78.10
4461;DHT22;2243;48.812;9.232;2023-06-22T15:17:14;33.00;77.30
4461;DHT22;2243;48.812;9.232;2023-06-22T15:19:46;33.10;75.60
4461;DHT22;2243;48.812;9.232;2023-06-22T15:22:17;33.20;73.20
4461;DHT22;2243;48.812;9.232;2023-06-22T15:24:50;33.30;72.50
4461;DHT22;2243;48.812;9.232;2023-06-22T15:27:24;33.40;71.80
4461;DHT22;2243;48.812;9.232;2023-06-22T15:29:56;33.50;70.50
4461;DHT22;2243;48.812;9.232;2023-06-22T15:32:29;33.60;70.50
4461;DHT22;2243;48.812;9.232;2023-06-22T15:35:00;33.80;69.60
4461;DHT22;2243;48.812;9.232;2023-06-22T15:37:31;33.70;68.60
4461;DHT22;2243;48.812;9.232;2023-06-22T15:40:03;33.50;68.50
4461;DHT22;2243;48.812;9.232;2023-06-22T15:42:35;33.50;69.20
4461;DHT22;2243;48.812;9.232;2023-06-22T15:45:06;33.40;68.80
4461;DHT22;2243;48.812;9.232;2023-06-22T15:47:38;33.30;68.90
4461;DHT22;2243;48.812;9.232;2023-06-22T15:50:09;33.40;68.00
4461;DHT22;2243;48.812;9.232;2023-06-22T15:52:41;33.40;68.30
4461;DHT22;2243;48.812;9.232;2023-06-22T15:55:14;33.50;68.00
4461;DHT22;2243;48.812;9.232;2023-06-22T15:57:47;33.60;67.60
4461;DHT22;2243;48.812;9.232;2023-06-22T16:00:18;33.60;66.90
4461;DHT22;2243;48.812;9.232;2023-06-22T16:02:51;33.50;67.00
4461;DHT22;2243;48.812;9.232;2023-06-22T16:05:26;33.30;67.20
4461;DHT22;2243;48.812;9.232;2023-06-22T16:07:57;33.10;67.80
4461;DHT22;2243;48.812;9.232;2023-06-22T16:10:30;32.80;68.10
4461;DHT22;2243;48.812;9.232;2023-06-22T16:13:01;32.60;68.70
4461;DHT22;2243;48.812;9.232;2023-06-22T16:15:32;32.50;69.10
4461;DHT22;2243;48.812;9.232;2023-06-22T16:18:03;32.30;69.30
4461;DHT22;2243;48.812;9.232;2023-06-22T16:20:35;32.20;69.80
4461;DHT22;2243;48.812;9.232;2023-06-22T16:23:06;32.10;69.20
4461;DHT22;2243;48.812;9.232;2023-06-22T16:25:38;32.00;69.20
4461;DHT22;2243;48.812;9.232;2023-06-22T16:28:09;31.90;68.80
4461;DHT22;2243;48.812;9.232;2023-06-22T16:30:40;31.70;68.90
4461;DHT22;2243;48.812;9.232;2023-06-22T16:33:12;31.70;68.70
4461;DHT22;2243;48.812;9.232;2023-06-22T16:35:44;31.70;68.90